Terminal Aerodrome Forecast
Issued by NWS Sterling, VA

Current Version | Previous Version | Graphics & Text | Print | Product List | Glossary On
Versions: 1 2 3 4 5 6 7 8 9 10 11 12 13 14 15 16 17 18 19 20 21 22 23 24 25 26
818
FTUS41 KLWX 222324
TAFDCA
TAF
KDCA 222324Z 2300/2324 32007KT P6SM -RA OVC030
     FM230100 31005KT P6SM OVC040
     FM230500 VRB03KT P6SM OVC015
     FM230700 34004KT 4SM BR OVC009
     FM231300 36006KT P6SM BKN040
     FM232100 33007KT P6SM -SHRA SCT035 BKN090=

USA.gov is the U.S. government's official web portal to all federal, state and local government web resources and services.